Strona główna
METAR-TAF:

METAR-TAF

Lotnisko :

Port lotniczy Tawau

Tawau, Malezja

Szerokość geograficzna: 04-16N, Długość geograficzna: 117-53E, wysokość: 18 m

Aktualna obserwacja pogody

Raport powstał 56 minut temu, godzina 11:00 UTC
Cisza
Temperatura 28°C
Wilgotność 79%
Ciśnienie 1009 hPa
Widzialność 10 km lub więcej
Mało chmury na wysokości 1700 ft
Przerywane chmury na wysokości 14000 ft

METAR: WBKW 241100Z 00000KT 9999 FEW017 BKN140 28/24 Q1009

czas: 19:56 (11:56 UTC)

Prognoza

Raport powstał 56 minut temu, godzina 11:00 UTC
Prognoza ważna od 24 godzina 12 UTC do 25 godzina 12 UTC
Wiatr 5 kt od północ
Widzialność 10 km lub więcej
Mało chmury na wysokości 1700 ft

TAF: WBKW 241100Z 2412/2512 35005KT 9999 FEW017

Obserwacja i prognoza pogody dla ponad 4000 lotnisk (raport METAR i TAF).

Dostępne stacje oznaczono żółtymi i czerwonymi punktami na mapie.

Najedź kursorem aby zobaczyć nazwę stacji.

Kliknij aby zobaczyć obserwacje i prognozy pogody.

Aby zmienić mapę: kliknij na zielony przycisk z czarnym krzyżykiem, aby powiększyć; na zielony przycisk z myślnikiem, aby pomniejszyć; na zielone strzałki, aby przejść do map sąsiednich.


METAR-TAF: